Time;durP1;ratioP1;P1;durP2;ratioP2;P2;SDS_P1;SDS_P2;PMS_P1;PMS_P2;Temp;Humidity;BMP_temperature;BMP_pressure;BME280_temperature;BME280_humidity;BME280_pressure;Samples;Min_cycle;Max_cycle;Signal;HPM_P1;HPM_P2
2023/04/24 00:01:07;;;;;;;1.70;0.70;;;11.90;91.30;;;;;;5129834;28;20260;-68
2023/04/24 00:03:34;;;;;;;1.60;0.70;;;11.90;91.00;;;;;;5118478;28;20289;-67
2023/04/24 00:06:02;;;;;;;2.25;0.70;;;11.90;91.00;;;;;;5116323;28;20272;-68
2023/04/24 00:08:30;;;;;;;1.95;0.60;;;11.90;90.60;;;;;;5120034;28;20603;-67
2023/04/24 00:10:58;;;;;;;1.80;0.90;;;11.80;91.10;;;;;;5123694;28;20603;-67
2023/04/24 00:13:30;;;;;;;1.75;0.70;;;11.80;91.60;;;;;;5120094;28;20199;-67
2023/04/24 00:15:58;;;;;;;1.70;0.70;;;11.80;91.00;;;;;;5120501;28;20307;-67
2023/04/24 00:18:25;;;;;;;1.50;0.60;;;11.80;90.70;;;;;;5113780;28;20184;-68
2023/04/24 00:20:53;;;;;;;1.75;0.70;;;11.70;90.50;;;;;;5116518;28;20195;-67
2023/04/24 00:23:20;;;;;;;1.60;0.60;;;11.70;90.60;;;;;;5115941;28;20189;-67
2023/04/24 00:25:47;;;;;;;1.75;0.90;;;11.60;90.60;;;;;;5129249;28;20260;-67
2023/04/24 00:28:16;;;;;;;1.70;0.60;;;11.60;90.50;;;;;;5129965;28;20191;-67
2023/04/24 00:30:44;;;;;;;1.70;0.77;;;11.60;91.00;;;;;;5131040;27;20295;-68
2023/04/24 00:33:11;;;;;;;1.60;0.60;;;11.60;91.00;;;;;;5124539;27;20228;-67
2023/04/24 00:35:38;;;;;;;1.60;0.77;;;11.60;91.40;;;;;;5132734;27;20191;-67
2023/04/24 00:38:05;;;;;;;4.25;0.70;;;11.60;90.60;;;;;;5118384;27;20193;-67
2023/04/24 00:40:33;;;;;;;1.58;0.63;;;11.60;90.80;;;;;;5115810;27;20241;-67
2023/04/24 00:43:02;;;;;;;1.75;0.75;;;11.60;91.20;;;;;;5134617;27;20184;-68
2023/04/24 00:45:31;;;;;;;3.03;0.80;;;11.60;91.30;;;;;;5135994;27;20195;-68
2023/04/24 00:47:58;;;;;;;4.25;0.95;;;11.70;91.40;;;;;;5136132;27;20215;-67
2023/04/24 00:50:26;;;;;;;2.45;1.00;;;11.70;91.50;;;;;;5134949;27;20547;-67
2023/04/24 00:52:53;;;;;;;2.35;1.20;;;11.70;91.60;;;;;;5136562;27;20199;-67
2023/04/24 00:55:20;;;;;;;2.10;1.02;;;11.80;91.50;;;;;;5136094;27;20227;-67
2023/04/24 00:57:49;;;;;;;1.65;0.77;;;11.80;91.00;;;;;;5136359;27;20226;-67
2023/04/24 01:00:16;;;;;;;3.15;0.90;;;11.80;90.40;;;;;;5136441;27;20183;-67
2023/04/24 01:02:46;;;;;;;1.80;1.10;;;11.80;90.60;;;;;;5135881;27;20575;-67
2023/04/24 01:05:14;;;;;;;1.70;1.00;;;11.80;90.70;;;;;;5135030;27;20262;-67
2023/04/24 01:07:45;;;;;;;1.70;0.75;;;11.80;90.50;;;;;;5136078;27;20223;-67
2023/04/24 01:10:13;;;;;;;1.60;0.80;;;11.80;90.00;;;;;;5135045;27;20172;-67
2023/04/24 01:12:40;;;;;;;1.70;0.80;;;11.80;89.50;;;;;;5136496;27;20275;-67
2023/04/24 01:15:08;;;;;;;1.70;0.80;;;11.70;89.80;;;;;;5135430;27;20271;-67
2023/04/24 01:17:36;;;;;;;1.50;0.50;;;11.80;88.80;;;;;;5136215;27;20642;-67
2023/04/24 01:20:05;;;;;;;1.60;0.60;;;11.70;87.90;;;;;;5134987;27;20212;-67
2023/04/24 01:22:34;;;;;;;1.70;0.70;;;11.70;88.00;;;;;;5135828;27;20237;-67
2023/04/24 01:25:01;;;;;;;1.70;0.85;;;11.60;87.00;;;;;;5135019;27;20278;-68
2023/04/24 01:27:28;;;;;;;1.60;0.70;;;11.60;87.40;;;;;;5134560;27;20306;-67
2023/04/24 01:29:55;;;;;;;1.50;0.60;;;11.60;88.10;;;;;;5136066;27;20191;-67
2023/04/24 01:32:22;;;;;;;1.60;0.60;;;11.60;87.20;;;;;;5134796;27;20200;-67
2023/04/24 01:34:52;;;;;;;1.50;0.60;;;11.60;87.30;;;;;;5135082;27;20233;-67
2023/04/24 01:37:19;;;;;;;1.70;0.80;;;11.60;87.40;;;;;;5135811;27;20279;-67
2023/04/24 01:39:48;;;;;;;2.78;0.63;;;11.70;87.10;;;;;;5134913;27;20234;-67
2023/04/24 01:42:15;;;;;;;2.10;0.85;;;11.60;87.70;;;;;;5134359;27;20227;-67
2023/04/24 01:44:43;;;;;;;1.50;0.60;;;11.70;87.40;;;;;;5134919;27;20231;-67
2023/04/24 01:47:10;;;;;;;1.50;0.75;;;11.60;86.40;;;;;;5135258;27;20251;-67
2023/04/24 01:49:39;;;;;;;2.30;0.70;;;11.60;86.90;;;;;;5135050;27;20274;-68
2023/04/24 01:52:07;;;;;;;1.60;0.63;;;11.60;88.30;;;;;;5124048;27;20199;-67
2023/04/24 01:54:34;;;;;;;1.85;0.80;;;11.60;87.80;;;;;;5135003;27;20187;-67
2023/04/24 01:57:03;;;;;;;1.50;0.60;;;11.60;88.30;;;;;;5133919;27;20188;-68
2023/04/24 01:59:32;;;;;;;2.72;0.68;;;11.50;88.40;;;;;;5135065;27;20188;-67
2023/04/24 02:01:59;;;;;;;1.80;0.95;;;11.40;87.30;;;;;;5133132;27;20267;-67
2023/04/24 02:04:27;;;;;;;1.75;0.75;;;11.40;87.70;;;;;;5135005;27;20617;-67
2023/04/24 02:06:53;;;;;;;1.70;0.80;;;11.40;87.30;;;;;;5134636;27;20270;-67
2023/04/24 02:09:21;;;;;;;2.25;0.70;;;11.40;87.00;;;;;;5135089;27;20226;-67
2023/04/24 02:11:48;;;;;;;2.92;1.13;;;11.30;87.60;;;;;;5132628;27;20180;-67
2023/04/24 02:14:16;;;;;;;1.70;0.90;;;11.30;87.80;;;;;;5134872;27;20595;-67
2023/04/24 02:16:43;;;;;;;1.50;0.60;;;11.20;89.60;;;;;;5133351;27;20302;-67
2023/04/24 02:19:11;;;;;;;1.70;0.60;;;11.20;90.20;;;;;;5134988;27;20649;-67
2023/04/24 02:21:38;;;;;;;1.70;0.60;;;11.30;89.80;;;;;;5133709;27;20572;-67
2023/04/24 02:24:05;;;;;;;2.78;0.90;;;11.20;89.60;;;;;;5134465;27;20649;-67
2023/04/24 02:26:32;;;;;;;1.83;0.70;;;11.20;90.00;;;;;;5134089;27;20243;-67
2023/04/24 02:28:59;;;;;;;2.00;0.80;;;11.20;90.30;;;;;;5134950;27;20279;-68
2023/04/24 02:31:28;;;;;;;3.88;0.90;;;11.20;90.30;;;;;;5133665;27;20184;-67
2023/04/24 02:33:55;;;;;;;2.30;1.00;;;11.20;89.70;;;;;;5134265;27;20676;-68
2023/04/24 02:36:22;;;;;;;3.90;1.33;;;11.20;89.80;;;;;;5133133;27;20219;-68
2023/04/24 02:38:49;;;;;;;3.80;1.75;;;11.20;90.30;;;;;;5134583;27;20191;-67
2023/04/24 02:41:16;;;;;;;5.15;1.17;;;11.20;90.60;;;;;;5133932;27;20231;-68
2023/04/24 02:43:43;;;;;;;1.70;0.80;;;11.10;90.40;;;;;;5134681;27;20227;-67
2023/04/24 02:46:10;;;;;;;6.78;1.35;;;11.10;90.60;;;;;;5132954;27;20634;-67
2023/04/24 02:48:39;;;;;;;3.42;1.33;;;11.00;90.80;;;;;;5134372;27;20226;-67
2023/04/24 02:51:07;;;;;;;3.28;1.30;;;11.00;90.70;;;;;;5134227;27;20677;-67
2023/04/24 02:53:34;;;;;;;2.30;0.80;;;11.00;90.90;;;;;;5133557;27;20671;-67
2023/04/24 02:56:01;;;;;;;1.58;0.75;;;11.00;91.40;;;;;;5134272;27;20638;-67
2023/04/24 02:58:28;;;;;;;1.60;0.70;;;11.00;91.50;;;;;;5134132;27;20238;-67
2023/04/24 03:00:57;;;;;;;1.90;1.00;;;10.90;91.90;;;;;;5134376;27;20223;-67
2023/04/24 03:03:25;;;;;;;1.90;0.98;;;10.80;92.30;;;;;;5134305;27;20227;-67
2023/04/24 03:05:53;;;;;;;1.60;0.73;;;10.70;92.80;;;;;;5134211;27;20259;-67
2023/04/24 03:08:20;;;;;;;1.60;0.70;;;10.80;92.90;;;;;;5133952;27;20223;-67
2023/04/24 03:10:47;;;;;;;1.77;0.70;;;10.70;92.80;;;;;;5134170;27;20191;-67
2023/04/24 03:13:14;;;;;;;1.65;0.80;;;10.80;93.00;;;;;;5133754;27;20695;-68
2023/04/24 03:15:41;;;;;;;1.63;0.70;;;10.80;93.20;;;;;;5133022;27;20251;-67
2023/04/24 03:18:08;;;;;;;1.65;0.70;;;10.90;93.20;;;;;;5134020;27;20498;-68
2023/04/24 03:20:36;;;;;;;1.80;0.90;;;10.90;93.10;;;;;;5133271;27;20236;-68
2023/04/24 03:23:05;;;;;;;4.90;1.13;;;10.80;93.20;;;;;;5133244;27;20188;-67
2023/04/24 03:25:32;;;;;;;2.25;0.90;;;10.90;93.00;;;;;;5133850;27;20223;-67
2023/04/24 03:27:59;;;;;;;2.30;1.27;;;10.90;93.30;;;;;;5133584;28;20233;-67
2023/04/24 03:30:26;;;;;;;1.80;0.90;;;10.90;93.30;;;;;;5133700;28;20187;-67
2023/04/24 03:32:53;;;;;;;2.45;1.10;;;10.90;92.90;;;;;;5133662;28;20188;-67
2023/04/24 03:35:21;;;;;;;1.90;1.10;;;10.90;92.50;;;;;;5134248;28;20219;-67
2023/04/24 03:37:49;;;;;;;2.30;1.13;;;10.90;92.60;;;;;;5133675;28;20631;-67
2023/04/24 03:40:17;;;;;;;1.67;0.65;;;10.90;92.50;;;;;;5133835;28;20282;-67
2023/04/24 03:42:46;;;;;;;2.30;0.77;;;10.90;92.70;;;;;;5133497;28;20203;-67
2023/04/24 03:45:17;;;;;;;1.90;0.90;;;10.90;92.70;;;;;;5133469;28;20282;-67
2023/04/24 03:47:44;;;;;;;1.60;0.60;;;10.90;92.80;;;;;;5133591;28;20215;-67
2023/04/24 03:50:11;;;;;;;1.65;0.68;;;10.90;92.70;;;;;;5133665;28;20604;-67
2023/04/24 03:52:42;;;;;;;1.73;0.70;;;10.80;93.00;;;;;;5133476;28;20183;-67
2023/04/24 03:55:12;;;;;;;4.25;1.02;;;10.80;93.20;;;;;;5133024;28;20270;-68
2023/04/24 03:57:41;;;;;;;2.20;0.90;;;10.80;93.10;;;;;;5133524;28;20192;-67
2023/04/24 04:00:09;;;;;;;3.50;1.50;;;10.90;92.80;;;;;;5133474;28;20222;-67
2023/04/24 04:02:36;;;;;;;3.65;2.10;;;10.80;92.80;;;;;;5133627;28;20188;-67
2023/04/24 04:05:04;;;;;;;3.33;1.48;;;10.80;92.70;;;;;;5133964;27;20230;-67
2023/04/24 04:07:31;;;;;;;3.25;1.15;;;10.80;92.90;;;;;;5137531;27;20223;-67
2023/04/24 04:09:58;;;;;;;2.20;1.30;;;10.80;92.30;;;;;;5137413;27;20188;-67
2023/04/24 04:12:25;;;;;;;2.10;0.85;;;10.80;92.20;;;;;;5136063;27;20184;-67
2023/04/24 04:14:53;;;;;;;2.65;1.13;;;10.90;92.20;;;;;;5136851;27;20195;-67
2023/04/24 04:17:23;;;;;;;1.63;0.75;;;10.90;92.20;;;;;;5137678;27;20248;-67
2023/04/24 04:19:52;;;;;;;1.80;0.93;;;10.90;92.20;;;;;;5136775;27;20623;-67
2023/04/24 04:22:21;;;;;;;1.73;0.75;;;10.90;91.90;;;;;;5135394;27;20187;-67
2023/04/24 04:24:48;;;;;;;2.00;0.82;;;10.90;91.70;;;;;;5136794;27;20188;-67
2023/04/24 04:27:16;;;;;;;1.92;0.90;;;11.00;91.90;;;;;;5135894;27;20772;-67
2023/04/24 04:29:43;;;;;;;2.17;1.00;;;11.00;91.80;;;;;;5136351;27;20219;-66
2023/04/24 04:32:12;;;;;;;2.45;1.10;;;11.00;91.90;;;;;;5136261;27;20654;-67
2023/04/24 04:34:39;;;;;;;2.10;1.00;;;11.00;91.10;;;;;;5134040;27;20191;-67
2023/04/24 04:37:06;;;;;;;2.15;0.98;;;11.00;91.00;;;;;;5136958;27;20280;-67
2023/04/24 04:39:33;;;;;;;2.10;1.10;;;11.00;90.90;;;;;;5136918;27;20275;-68
2023/04/24 04:42:03;;;;;;;1.63;0.60;;;11.00;90.90;;;;;;5136982;27;20202;-67
2023/04/24 04:44:31;;;;;;;2.40;0.90;;;11.00;90.70;;;;;;5137364;27;20191;-67
2023/04/24 04:46:59;;;;;;;1.60;0.60;;;11.10;90.40;;;;;;5137127;27;20223;-67
2023/04/24 04:49:28;;;;;;;2.90;0.90;;;11.10;90.10;;;;;;5134630;27;20186;-67
2023/04/24 04:51:57;;;;;;;2.20;1.20;;;11.10;89.80;;;;;;5126543;27;20219;-68
2023/04/24 04:54:24;;;;;;;1.90;0.93;;;11.10;89.50;;;;;;5111631;27;20192;-67
2023/04/24 04:56:55;;;;;;;2.60;0.98;;;11.10;90.00;;;;;;5118942;27;20240;-67
2023/04/24 04:59:22;;;;;;;1.80;0.82;;;11.20;88.60;;;;;;5114947;27;20554;-67
2023/04/24 05:01:53;;;;;;;2.05;1.10;;;11.10;87.80;;;;;;5117093;27;20192;-67
2023/04/24 05:04:20;;;;;;;1.90;0.90;;;11.20;88.20;;;;;;5124470;27;20223;-67
2023/04/24 05:06:54;;;;;;;1.88;1.00;;;11.10;88.30;;;;;;5122389;27;20184;-67
2023/04/24 05:09:21;;;;;;;2.10;0.77;;;11.10;88.40;;;;;;5118901;27;20216;-67
2023/04/24 05:11:48;;;;;;;1.65;0.80;;;11.20;88.00;;;;;;5116188;27;20267;-67
2023/04/24 05:14:15;;;;;;;1.50;0.60;;;11.20;86.80;;;;;;5115763;27;20192;-67
2023/04/24 05:16:42;;;;;;;1.67;0.70;;;11.10;86.20;;;;;;5117154;27;20226;-67
2023/04/24 05:19:10;;;;;;;1.50;0.60;;;11.20;86.40;;;;;;5114565;27;20188;-67
2023/04/24 05:21:39;;;;;;;1.90;0.90;;;11.20;86.00;;;;;;5128867;27;20279;-67
2023/04/24 05:24:07;;;;;;;1.50;0.50;;;11.20;84.70;;;;;;5125330;27;20233;-67
2023/04/24 05:26:35;;;;;;;3.53;0.80;;;11.10;85.70;;;;;;5130413;27;20222;-67
2023/04/24 05:29:02;;;;;;;1.50;0.60;;;11.20;84.80;;;;;;5132987;27;20223;-67
2023/04/24 05:31:29;;;;;;;2.53;1.00;;;11.10;85.30;;;;;;5129616;27;20184;-67
2023/04/24 05:33:56;;;;;;;2.10;0.90;;;11.10;85.60;;;;;;5115043;27;20275;-67
2023/04/24 05:36:23;;;;;;;1.50;0.70;;;11.00;85.30;;;;;;5131517;27;20225;-67
2023/04/24 05:38:50;;;;;;;2.20;0.70;;;11.00;85.10;;;;;;5133514;27;20226;-67
2023/04/24 05:41:19;;;;;;;1.90;0.80;;;11.00;86.00;;;;;;5124986;27;20184;-67
2023/04/24 05:43:46;;;;;;;1.65;0.80;;;11.10;85.10;;;;;;5114982;27;20215;-67
2023/04/24 05:46:13;;;;;;;1.90;1.08;;;11.00;85.70;;;;;;5116910;27;20219;-67
2023/04/24 05:48:45;;;;;;;2.40;0.82;;;11.10;85.30;;;;;;5117151;27;20573;-67
2023/04/24 05:51:12;;;;;;;1.90;0.70;;;11.20;85.00;;;;;;5116101;27;20555;-67
2023/04/24 05:53:39;;;;;;;4.55;0.80;;;11.10;85.00;;;;;;5125589;27;20822;-67
2023/04/24 05:56:07;;;;;;;1.58;0.80;;;11.10;85.60;;;;;;5121211;27;20267;-67
2023/04/24 05:58:35;;;;;;;1.90;0.90;;;11.20;86.70;;;;;;5132693;27;20223;-67
2023/04/24 06:01:03;;;;;;;2.63;0.80;;;11.20;85.40;;;;;;5131461;27;20192;-67
2023/04/24 06:03:30;;;;;;;1.60;0.68;;;11.30;85.00;;;;;;5131831;27;20200;-67
2023/04/24 06:05:57;;;;;;;1.60;0.60;;;11.30;85.60;;;;;;5119833;27;20200;-67
2023/04/24 06:08:27;;;;;;;2.03;0.93;;;11.30;86.50;;;;;;5117298;27;20315;-67
2023/04/24 06:10:54;;;;;;;1.73;0.63;;;11.30;87.20;;;;;;5122295;27;20263;-67
2023/04/24 06:13:21;;;;;;;2.30;0.93;;;11.30;87.40;;;;;;5116266;27;20181;-67
2023/04/24 06:15:50;;;;;;;1.80;0.65;;;11.40;87.40;;;;;;5113332;27;20253;-67
2023/04/24 06:18:17;;;;;;;3.35;0.80;;;11.50;87.90;;;;;;5113617;27;20219;-67
2023/04/24 06:20:44;;;;;;;1.95;0.80;;;11.60;87.40;;;;;;5127327;27;20192;-67
2023/04/24 06:23:14;;;;;;;2.75;1.10;;;11.70;87.40;;;;;;5113666;27;20184;-67
2023/04/24 06:25:41;;;;;;;1.80;0.70;;;11.70;87.50;;;;;;5116740;27;20595;-67
2023/04/24 06:28:09;;;;;;;1.90;0.70;;;11.80;88.30;;;;;;5113483;27;20733;-67
2023/04/24 06:30:36;;;;;;;1.65;0.65;;;11.90;89.00;;;;;;5119327;27;20590;-67
2023/04/24 06:33:04;;;;;;;1.55;0.65;;;11.90;89.60;;;;;;5131739;27;20274;-67
2023/04/24 06:35:31;;;;;;;1.60;0.63;;;11.90;86.20;;;;;;5131568;27;20274;-67
2023/04/24 06:37:58;;;;;;;2.10;1.00;;;11.90;85.80;;;;;;5120428;27;20238;-68
2023/04/24 06:40:26;;;;;;;1.80;0.80;;;11.90;84.80;;;;;;5119446;27;20266;-67
2023/04/24 06:42:53;;;;;;;2.20;1.33;;;11.90;85.00;;;;;;5133419;27;20218;-67
2023/04/24 06:45:25;;;;;;;3.10;1.45;;;11.90;84.40;;;;;;5134149;27;20286;-67
2023/04/24 06:47:52;;;;;;;3.05;0.90;;;12.00;83.70;;;;;;5133959;27;20192;-67
2023/04/24 06:50:24;;;;;;;1.75;0.70;;;12.00;83.20;;;;;;5122592;27;20275;-67
2023/04/24 06:52:51;;;;;;;1.70;0.70;;;12.10;80.90;;;;;;5133782;27;20279;-66
2023/04/24 06:55:19;;;;;;;1.60;0.70;;;12.10;79.60;;;;;;5133085;27;20668;-67
2023/04/24 06:57:46;;;;;;;1.90;0.77;;;12.10;80.80;;;;;;5128659;27;20622;-67
2023/04/24 07:00:14;;;;;;;1.95;0.70;;;12.20;80.20;;;;;;5130119;27;20772;-67
2023/04/24 07:02:42;;;;;;;2.35;1.00;;;12.20;80.00;;;;;;5129476;27;20235;-67
2023/04/24 07:05:09;;;;;;;1.77;0.80;;;12.10;80.60;;;;;;5133407;27;20279;-67
2023/04/24 07:07:40;;;;;;;1.70;0.70;;;12.10;80.90;;;;;;5128892;27;20192;-67
2023/04/24 07:10:08;;;;;;;1.70;0.70;;;12.10;80.10;;;;;;5132458;27;20645;-67
2023/04/24 07:12:35;;;;;;;6.30;4.43;;;12.10;81.00;;;;;;5133240;27;20203;-67
2023/04/24 07:15:12;;;;;;;2.35;0.85;;;12.20;80.50;;;;;;5131605;27;20246;-67
2023/04/24 07:17:43;;;;;;;19.50;9.80;;;12.30;79.20;;;;;;5124894;27;20199;-67
2023/04/24 07:20:11;;;;;;;4.35;3.05;;;12.40;79.30;;;;;;5128834;27;20200;-68
2023/04/24 07:22:40;;;;;;;4.32;0.80;;;12.60;79.20;;;;;;5124676;27;20268;-67
2023/04/24 07:25:08;;;;;;;2.75;1.27;;;12.70;78.30;;;;;;5122467;27;20191;-67
2023/04/24 07:27:36;;;;;;;2.70;1.35;;;12.90;76.60;;;;;;5128905;28;20192;-67
2023/04/24 07:30:03;;;;;;;2.97;1.90;;;13.10;75.80;;;;;;5126683;28;20310;-67
2023/04/24 07:32:31;;;;;;;3.77;2.40;;;13.40;73.80;;;;;;5131865;28;20524;-67
2023/04/24 07:35:02;;;;;;;2.27;0.83;;;13.60;73.80;;;;;;5133160;28;20439;-67
2023/04/24 07:37:30;;;;;;;1.50;0.70;;;13.80;72.10;;;;;;5133712;28;20926;-67
2023/04/24 07:39:58;;;;;;;1.60;0.70;;;14.00;72.00;;;;;;5135685;27;20950;-67
2023/04/24 07:42:30;;;;;;;1.80;0.80;;;14.20;71.50;;;;;;5138234;27;20461;-67
2023/04/24 07:44:57;;;;;;;1.93;0.83;;;14.30;69.20;;;;;;5138060;27;20441;-67
2023/04/24 07:47:24;;;;;;;2.27;0.80;;;14.30;69.10;;;;;;5138065;27;20804;-67
2023/04/24 07:49:51;;;;;;;1.50;0.60;;;14.30;69.40;;;;;;5137667;27;20746;-67
2023/04/24 07:52:18;;;;;;;2.57;0.80;;;14.30;68.10;;;;;;5138119;27;20513;-67
2023/04/24 07:54:46;;;;;;;1.60;0.70;;;14.30;67.00;;;;;;5137436;27;21006;-67
2023/04/24 07:57:14;;;;;;;1.80;0.80;;;14.20;66.70;;;;;;5137774;27;20862;-66
2023/04/24 07:59:43;;;;;;;1.50;0.60;;;14.10;66.10;;;;;;5137593;27;20493;-67
2023/04/24 08:02:10;;;;;;;1.60;0.60;;;14.00;67.90;;;;;;5137895;27;20979;-67
2023/04/24 08:04:40;;;;;;;1.63;0.57;;;13.90;69.50;;;;;;5138042;27;20460;-67
2023/04/24 08:07:07;;;;;;;1.60;0.80;;;13.90;69.30;;;;;;5138204;27;20433;-67
2023/04/24 08:09:34;;;;;;;2.33;0.60;;;14.00;69.60;;;;;;5137511;27;20508;-67
2023/04/24 08:12:02;;;;;;;1.60;0.70;;;14.10;69.80;;;;;;5137246;27;20440;-67
2023/04/24 08:14:33;;;;;;;2.27;0.70;;;14.20;69.40;;;;;;5137536;27;20922;-67
2023/04/24 08:17:01;;;;;;;1.60;0.60;;;14.30;68.80;;;;;;5137448;27;20891;-67
2023/04/24 08:19:30;;;;;;;2.07;0.70;;;14.30;69.50;;;;;;5137179;27;20859;-67
2023/04/24 08:21:57;;;;;;;1.70;0.70;;;14.30;66.90;;;;;;5137257;27;20520;-67
2023/04/24 08:24:24;;;;;;;1.70;0.80;;;14.30;65.70;;;;;;5137464;27;20524;-67
2023/04/24 08:26:53;;;;;;;3.27;1.10;;;14.20;66.50;;;;;;5137138;27;20482;-67
2023/04/24 08:29:21;;;;;;;3.07;1.50;;;14.20;67.70;;;;;;5137061;27;20481;-67
2023/04/24 08:31:54;;;;;;;33.50;20.10;;;14.10;67.50;;;;;;5137361;27;20464;-67
2023/04/24 08:34:24;;;;;;;8.03;4.90;;;14.20;68.00;;;;;;5137309;27;20533;-67
2023/04/24 08:36:51;;;;;;;3.80;1.90;;;14.30;68.90;;;;;;5137020;27;20487;-67
2023/04/24 08:39:19;;;;;;;1.60;0.70;;;14.40;68.30;;;;;;5136916;27;20516;-67
2023/04/24 08:41:46;;;;;;;5.00;1.63;;;14.50;66.10;;;;;;5136879;27;20437;-67
2023/04/24 08:44:16;;;;;;;1.83;0.87;;;14.50;64.50;;;;;;5136893;27;20439;-67
2023/04/24 08:46:45;;;;;;;4.33;0.70;;;14.50;64.00;;;;;;5136726;27;20433;-67
2023/04/24 08:49:16;;;;;;;1.80;0.90;;;14.60;64.50;;;;;;5132460;27;20564;-67
2023/04/24 08:51:53;;;;;;;6.83;1.00;;;14.80;63.40;;;;;;5131440;27;20437;-67
2023/04/24 08:54:21;;;;;;;1.97;0.80;;;14.90;64.30;;;;;;5134947;27;20483;-67
2023/04/24 08:56:49;;;;;;;2.30;1.00;;;15.10;64.10;;;;;;5130818;27;20442;-67
2023/04/24 08:59:19;;;;;;;5.20;0.77;;;15.20;64.50;;;;;;5131230;27;20486;-67
2023/04/24 09:01:47;;;;;;;3.20;1.30;;;15.40;64.00;;;;;;5132447;27;20864;-68
2023/04/24 09:04:17;;;;;;;3.17;1.03;;;15.60;59.80;;;;;;5130713;27;20477;-68
2023/04/24 09:06:45;;;;;;;3.43;0.90;;;15.70;59.10;;;;;;5132120;27;20441;-68
2023/04/24 09:09:12;;;;;;;2.93;1.00;;;15.90;58.70;;;;;;5126190;27;20477;-67
2023/04/24 09:11:40;;;;;;;3.37;2.17;;;16.00;58.90;;;;;;5135132;27;20833;-67
2023/04/24 09:14:10;;;;;;;12.87;7.90;;;16.00;56.70;;;;;;5133761;27;20521;-67
2023/04/24 09:16:37;;;;;;;7.63;4.27;;;15.90;56.10;;;;;;5134710;27;20461;-67
2023/04/24 09:19:04;;;;;;;3.70;2.13;;;15.90;56.50;;;;;;5133701;27;20912;-67
2023/04/24 09:21:34;;;;;;;2.40;1.10;;;15.90;55.30;;;;;;5130885;27;20481;-67
2023/04/24 09:24:03;;;;;;;4.17;1.53;;;15.90;55.80;;;;;;5133664;27;20474;-67
2023/04/24 09:26:33;;;;;;;1.97;0.90;;;15.80;54.30;;;;;;5133815;27;20436;-68
2023/04/24 09:29:01;;;;;;;2.67;1.00;;;15.70;54.60;;;;;;5132835;27;20561;-68
2023/04/24 09:31:29;;;;;;;2.40;1.20;;;15.70;52.60;;;;;;5131066;27;20528;-68
2023/04/24 09:33:57;;;;;;;2.90;1.00;;;15.80;53.60;;;;;;5128833;27;20422;-68
2023/04/24 09:36:31;;;;;;;2.37;1.10;;;16.30;54.60;;;;;;5129650;27;20494;-67
2023/04/24 09:39:01;;;;;;;2.30;0.90;;;16.70;53.00;;;;;;5132514;27;20457;-68
2023/04/24 09:41:29;;;;;;;2.43;1.30;;;17.00;51.30;;;;;;5130686;27;20488;-67
2023/04/24 09:43:57;;;;;;;3.20;0.90;;;17.30;49.30;;;;;;5132723;27;20434;-68
2023/04/24 09:46:31;;;;;;;3.70;1.40;;;17.60;49.20;;;;;;5134507;27;20444;-67
2023/04/24 09:48:58;;;;;;;2.43;1.20;;;18.00;49.20;;;;;;5132394;27;21017;-67
2023/04/24 09:51:37;;;;;;;2.30;1.00;;;18.40;47.60;;;;;;5130335;27;20457;-67
2023/04/24 09:54:13;;;;;;;10.43;1.17;;;18.70;46.50;;;;;;5132300;27;20445;-67
2023/04/24 09:56:44;;;;;;;2.10;0.80;;;19.00;45.40;;;;;;5131115;27;20848;-67
2023/04/24 09:59:11;;;;;;;4.27;1.10;;;19.30;45.30;;;;;;5126586;27;20853;-67
2023/04/24 10:01:42;;;;;;;2.93;1.17;;;19.50;41.80;;;;;;5130522;27;20508;-69
2023/04/24 10:04:20;;;;;;;3.43;0.97;;;19.50;41.90;;;;;;5131552;27;20483;-67
2023/04/24 10:06:48;;;;;;;2.20;1.17;;;19.60;41.30;;;;;;5132326;27;20437;-67
2023/04/24 10:09:17;;;;;;;2.57;1.37;;;19.90;40.10;;;;;;5131249;27;20536;-67
2023/04/24 10:11:45;;;;;;;2.20;1.00;;;20.10;42.20;;;;;;5133920;27;20437;-67
2023/04/24 10:14:15;;;;;;;2.97;1.20;;;20.20;40.10;;;;;;5131439;27;20446;-67
2023/04/24 10:16:47;;;;;;;2.60;0.97;;;20.60;41.20;;;;;;5131984;27;20544;-67
2023/04/24 10:19:15;;;;;;;3.40;1.13;;;20.90;40.70;;;;;;5131017;27;20517;-67
2023/04/24 10:21:47;;;;;;;2.23;1.27;;;21.20;38.90;;;;;;5134266;27;20927;-67
2023/04/24 10:24:16;;;;;;;2.07;1.07;;;21.40;38.30;;;;;;5131036;27;20448;-67
2023/04/24 10:26:45;;;;;;;2.27;1.17;;;21.70;37.20;;;;;;5125275;27;20449;-67
2023/04/24 10:29:15;;;;;;;2.97;0.80;;;22.00;39.60;;;;;;5130545;27;20531;-67
2023/04/24 10:31:43;;;;;;;3.30;0.90;;;22.10;37.50;;;;;;5133967;27;20441;-68
2023/04/24 10:34:11;;;;;;;2.50;1.10;;;22.30;37.80;;;;;;5126172;27;20442;-67
2023/04/24 10:36:43;;;;;;;2.17;0.80;;;22.40;36.90;;;;;;5127313;27;20426;-67
2023/04/24 10:39:15;;;;;;;3.50;1.20;;;22.40;35.40;;;;;;5130508;27;20511;-67
2023/04/24 10:41:44;;;;;;;2.67;0.90;;;22.20;34.10;;;;;;5129570;27;21033;-67
2023/04/24 10:44:13;;;;;;;3.20;1.20;;;21.70;33.80;;;;;;5130122;27;20442;-67
2023/04/24 10:46:44;;;;;;;3.40;1.40;;;21.00;35.70;;;;;;5133367;27;20448;-67
2023/04/24 10:49:11;;;;;;;2.83;1.03;;;20.40;37.20;;;;;;5129860;27;20493;-67
2023/04/24 10:51:49;;;;;;;3.80;1.00;;;19.80;37.70;;;;;;5133000;27;20473;-67
2023/04/24 10:54:25;;;;;;;1.93;0.83;;;19.20;42.90;;;;;;5127749;27;20450;-67
2023/04/24 10:56:54;;;;;;;2.00;0.93;;;18.40;45.40;;;;;;5130650;27;20553;-67
2023/04/24 10:59:28;;;;;;;1.80;0.60;;;17.80;47.60;;;;;;5129242;27;20464;-67
2023/04/24 11:01:56;;;;;;;2.67;1.07;;;17.30;50.00;;;;;;5127352;27;20495;-67
2023/04/24 11:04:34;;;;;;;2.10;0.90;;;16.80;51.00;;;;;;5132393;27;20520;-67
2023/04/24 11:07:04;;;;;;;2.93;1.10;;;16.60;52.90;;;;;;5129049;27;20464;-67
2023/04/24 11:09:32;;;;;;;2.53;0.87;;;16.90;54.10;;;;;;5129351;27;20860;-67
2023/04/24 11:12:09;;;;;;;2.13;1.00;;;17.40;55.10;;;;;;5128509;27;20449;-67
2023/04/24 11:15:03;;;;;;;2.57;1.20;;;18.30;55.60;;;;;;5133159;27;20505;-67
2023/04/24 11:17:37;;;;;;;2.20;0.90;;;18.80;51.50;;;;;;5074311;27;20527;-67
2023/04/24 11:20:06;;;;;;;2.50;1.10;;;19.10;51.10;;;;;;5133566;27;20447;-67
2023/04/24 11:22:35;;;;;;;2.63;0.90;;;19.20;47.70;;;;;;5128512;27;20987;-67
2023/04/24 11:25:03;;;;;;;3.47;1.20;;;19.30;47.30;;;;;;5128472;27;20442;-67
2023/04/24 11:27:39;;;;;;;2.80;1.43;;;19.50;45.20;;;;;;5128802;28;20781;-68
2023/04/24 11:30:11;;;;;;;2.20;1.07;;;19.90;43.60;;;;;;5133341;28;20476;-68
2023/04/24 11:32:41;;;;;;;2.00;0.90;;;20.00;42.10;;;;;;5129228;28;20524;-68
2023/04/24 11:35:14;;;;;;;3.00;1.30;;;20.00;41.80;;;;;;5124125;28;20999;-68
2023/04/24 11:37:42;;;;;;;2.70;1.10;;;20.20;41.60;;;;;;5129731;28;20532;-68
2023/04/24 11:40:11;;;;;;;2.90;1.00;;;20.20;39.70;;;;;;5129049;28;20433;-68
2023/04/24 11:42:41;;;;;;;4.30;1.60;;;20.20;39.50;;;;;;5128623;28;20845;-68
2023/04/24 11:45:10;;;;;;;1.93;0.93;;;20.10;38.20;;;;;;5129475;28;20488;-68
2023/04/24 11:47:38;;;;;;;2.60;1.10;;;19.80;38.60;;;;;;5132046;28;20867;-67
2023/04/24 11:50:07;;;;;;;2.93;1.17;;;19.40;39.60;;;;;;5128354;28;20478;-68
2023/04/24 11:52:37;;;;;;;3.10;1.40;;;19.00;38.90;;;;;;5133859;28;20842;-67
2023/04/24 11:55:05;;;;;;;2.23;1.27;;;18.80;38.20;;;;;;5133192;28;20877;-67
2023/04/24 11:57:34;;;;;;;7.50;0.90;;;18.60;38.70;;;;;;5133796;28;20437;-67
2023/04/24 12:00:03;;;;;;;4.70;1.77;;;18.50;39.80;;;;;;5133827;28;20988;-68
2023/04/24 12:02:30;;;;;;;2.27;1.10;;;18.50;39.40;;;;;;5128913;28;20430;-68
2023/04/24 12:04:57;;;;;;;3.33;1.20;;;18.70;38.50;;;;;;5113254;28;20526;-67
2023/04/24 12:07:25;;;;;;;2.30;0.90;;;18.80;37.70;;;;;;5112909;28;20474;-67
2023/04/24 12:09:59;;;;;;;3.50;0.93;;;18.80;39.00;;;;;;5113152;28;20980;-67
2023/04/24 12:12:27;;;;;;;3.20;1.10;;;18.90;38.70;;;;;;5113065;28;20491;-68
2023/04/24 12:14:57;;;;;;;4.07;1.03;;;19.10;39.30;;;;;;5112528;28;20924;-68
2023/04/24 12:17:31;;;;;;;1.80;0.80;;;19.30;37.30;;;;;;5112644;28;20442;-68
2023/04/24 12:20:02;;;;;;;2.17;0.93;;;19.60;39.40;;;;;;5113025;28;20529;-67
2023/04/24 12:22:43;;;;;;;6.43;1.70;;;20.00;41.90;;;;;;5112982;28;20438;-68
2023/04/24 12:25:12;;;;;;;4.67;1.00;;;20.40;37.70;;;;;;5112964;28;20452;-68
2023/04/24 12:27:39;;;;;;;2.30;1.00;;;20.40;35.50;;;;;;5115956;28;20515;-68
2023/04/24 12:30:11;;;;;;;3.30;1.10;;;20.20;34.50;;;;;;5116421;28;20562;-67
2023/04/24 12:32:42;;;;;;;3.13;1.23;;;19.90;35.30;;;;;;5116607;28;20487;-68
2023/04/24 12:35:10;;;;;;;2.10;1.03;;;19.70;37.20;;;;;;5116571;28;20470;-68
2023/04/24 12:37:39;;;;;;;3.10;1.40;;;19.50;37.40;;;;;;5116502;28;20944;-68
2023/04/24 12:40:08;;;;;;;2.73;1.27;;;19.30;36.30;;;;;;5116273;28;20527;-67
2023/04/24 12:42:42;;;;;;;3.20;1.00;;;19.00;35.60;;;;;;5116395;28;20434;-68
2023/04/24 12:45:11;;;;;;;1.93;1.03;;;18.70;36.60;;;;;;5116629;28;20503;-68
2023/04/24 12:47:41;;;;;;;1.87;0.80;;;18.50;37.30;;;;;;5115895;28;20995;-68
2023/04/24 12:50:11;;;;;;;3.33;1.33;;;18.20;38.50;;;;;;5116247;28;20817;-68
2023/04/24 12:52:39;;;;;;;2.93;1.20;;;17.80;39.30;;;;;;5115966;28;20470;-67